Flight Track Log - Related Links

Times and Time Zones

All times are in EDT time to prevent confusion due to time zone crossing. See the BJS542 flight status page for this flight to view local times or setup timezone preferences in your user account.

Time Position Orientation Groundspeed Altitude Reporting Facility
EDT Latitude Longitude Course Direction KTS MPH feet Rate Location/Type
Mon 10:27:50 AM 39.7500 -86.2000 80° East 250 288 5,000  Level Indianapolis TRACON
Mon 10:29:07 AM 39.7672 -86.0742 80° East 285 328 5,000 1,511 Level Indianapolis Center
Mon 10:30:09 AM 39.6919 -86.0794 183° South 284 327 8,500 3,968 Climbing Indianapolis Center
Mon 10:31:11 AM 39.6264 -86.1422 216° Southwest 289 333 13,200 4,016 Climbing Indianapolis Center
Mon 10:32:13 AM 39.5533 -86.2125 217° Southwest 322 371 16,800 3,339 Climbing Indianapolis Center
Mon 10:33:15 AM 39.4747 -86.2897 217° Southwest 349 402 20,100 3,242 Climbing Indianapolis Center
Mon 10:34:17 AM 39.3939 -86.3675 217° Southwest 359 413 23,500 2,806 Climbing Indianapolis Center
Mon 10:35:19 AM 39.3083 -86.4511 217° Southwest 380 437 25,900 2,661 Climbing Indianapolis Center
Mon 10:36:21 AM 39.1981 -86.5583 217° Southwest 410 472 29,000 2,710 Climbing Indianapolis Center
Mon 10:37:23 AM 39.0947 -86.6439 213° Southwest 429 494 31,500 2,468 Climbing Indianapolis Center
Mon 10:38:25 AM 38.9869 -86.7156 207° Southwest 435 501 34,100 2,468 Climbing Indianapolis Center
Mon 10:39:27 AM 38.8936 -86.8128 219° Southwest 431 496 36,600 2,032 Climbing Indianapolis Center
Mon 10:40:29 AM 38.7986 -86.9069 218° Southwest 431 496 38,300 1,548 Climbing Indianapolis Center
Mon 10:41:31 AM 38.7022 -87.0025 218° Southwest 437 503 39,800 1,452 Climbing Indianapolis Center
Mon 10:42:33 AM 38.6072 -87.0969 218° Southwest 435 501 41,300 1,355 Climbing Indianapolis Center
Mon 10:43:35 AM 38.4947 -87.2078 218° Southwest 429 494 42,600 823 Climbing Indianapolis Center
Mon 10:44:37 AM 38.4019 -87.3019 219° Southwest 432 497 43,000 194 Climbing Indianapolis Center
Mon 10:45:39 AM 38.3042 -87.3975 217° Southwest 446 513 43,000  Level Indianapolis Center
Mon 10:46:41 AM 38.2056 -87.4928 217° Southwest 446 513 43,000  Level Indianapolis Center
Mon 10:47:43 AM 38.1064 -87.5897 218° Southwest 450 518 43,000  Level Indianapolis Center
Mon 10:48:45 AM 37.9869 -87.7050 217° Southwest 449 517 43,000  Level Indianapolis Center
Mon 10:49:47 AM 37.8997 -87.8153 225° Southwest 439 505 43,000  Level Indianapolis Center
Mon 10:50:49 AM 37.8300 -87.9419 235° Southwest 436 502 43,000  Level Indianapolis Center
Mon 10:51:51 AM 37.7608 -88.0686 235° Southwest 436 502 43,000  Level Indianapolis Center
Mon 10:52:53 AM 37.6933 -88.1922 235° Southwest 435 501 43,000  Level Indianapolis Center
Mon 10:53:55 AM 37.6225 -88.3214 235° Southwest 436 502 43,000  Level Indianapolis Center
Mon 10:54:36 AM 37.5750 -88.4156 238° Southwest 443 510 43,000  Level Memphis Center
Mon 10:55:36 AM 37.5061 -88.5400 235° Southwest 448 516 43,000  Level Memphis Center
Mon 10:56:36 AM 37.4369 -88.6669 236° Southwest 448 516 43,000  Level Memphis Center
Mon 10:57:36 AM 37.3678 -88.7911 235° Southwest 443 510 43,000  Level Memphis Center
Mon 10:58:36 AM 37.2964 -88.9178 235° Southwest 443 510 43,000  Level Memphis Center
Mon 10:59:36 AM 37.2250 -89.0414 234° Southwest 443 510 43,000  Level Memphis Center
Mon 11:00:36 AM 37.1533 -89.1703 235° Southwest 448 516 43,000  Level Memphis Center
Mon 11:01:36 AM 37.0836 -89.2933 235° Southwest 448 516 43,000  Level Memphis Center
Mon 11:02:36 AM 37.0117 -89.4192 234° Southwest 448 516 43,000  Level Memphis Center
Mon 11:03:36 AM 36.9397 -89.5469 235° Southwest 448 516 43,000  Level Memphis Center
Mon 11:04:36 AM 36.8653 -89.6722 233° Southwest 453 521 43,000  Level Memphis Center
Mon 11:05:36 AM 36.7931 -89.7972 234° Southwest 453 521 43,000  Level Memphis Center
Mon 11:06:36 AM 36.7144 -89.9350 235° Southwest 459 528 43,000  Level Memphis Center
Mon 11:07:36 AM 36.6419 -90.0569 233° Southwest 459 528 43,000  Level Memphis Center
Mon 11:08:36 AM 36.5692 -90.1811 234° Southwest 453 521 43,000  Level Memphis Center
Mon 11:09:36 AM 36.4964 -90.3028 233° Southwest 453 521 43,000  Level Memphis Center
Mon 11:10:36 AM 36.4256 -90.4267 235° Southwest 453 521 43,000  Level Memphis Center
Mon 11:11:36 AM 36.3503 -90.5503 233° Southwest 453 521 43,000  Level Memphis Center
Mon 11:12:36 AM 36.2769 -90.6711 233° Southwest 453 521 43,000  Level Memphis Center
Mon 11:13:36 AM 36.2036 -90.7942 234° Southwest 453 521 43,000  Level Memphis Center
Mon 11:14:36 AM 36.1303 -90.9172 234° Southwest 453 521 43,000  Level Memphis Center
Mon 11:15:36 AM 36.0547 -91.0372 232° Southwest 453 521 43,000  Level Memphis Center
Mon 11:16:36 AM 35.9747 -91.1547 230° Southwest 458 527 43,000  Level Memphis Center
Mon 11:17:36 AM 35.8947 -91.2717 230° Southwest 458 527 43,000  Level Memphis Center
Mon 11:18:36 AM 35.8125 -91.3861 228° Southwest 458 527 43,000  Level Memphis Center
Mon 11:19:36 AM 35.7406 -91.5003 232° Southwest 443 510 43,000  Level Memphis Center
Mon 11:20:36 AM 35.6581 -91.6192 230° Southwest 448 516 43,000  Level Memphis Center
Mon 11:21:36 AM 35.5775 -91.7356 230° Southwest 448 516 43,000  Level Memphis Center
Mon 11:22:36 AM 35.4992 -91.8514 230° Southwest 448 516 43,000  Level Memphis Center
Mon 11:23:36 AM 35.4206 -91.9647 230° Southwest 448 516 43,000  Level Memphis Center
Mon 11:24:36 AM 35.3356 -92.0803 228° Southwest 453 521 43,000  Level Memphis Center
Mon 11:25:36 AM 35.2589 -92.1981 231° Southwest 453 521 43,000  Level Memphis Center
Mon 11:26:36 AM 35.1758 -92.3106 228° Southwest 453 521 43,000  Level Memphis Center
Mon 11:27:36 AM 35.0967 -92.4256 230° Southwest 453 521 43,000  Level Memphis Center
Mon 11:28:36 AM 35.0153 -92.5428 230° Southwest 453 521 43,000  Level Memphis Center
Mon 11:29:36 AM 34.9319 -92.6569 228° Southwest 453 521 43,000  Level Memphis Center
Mon 11:30:36 AM 34.8525 -92.7739 230° Southwest 453 521 43,000  Level Memphis Center
Mon 11:31:36 AM 34.7711 -92.8878 229° Southwest 453 521 43,000  Level Memphis Center
Mon 11:32:36 AM 34.6894 -93.0042 230° Southwest 453 521 43,000  Level Memphis Center
Mon 11:33:36 AM 34.6183 -93.1003 228° Southwest 453 521 43,000  Level Memphis Center
Mon 11:34:36 AM 34.5367 -93.2161 229° Southwest 453 521 43,000  Level Memphis Center
Mon 11:37:06 AM 34.3317 -93.5106 230° Southwest 442 509 43,000  Level Fort Center
Mon 11:38:06 AM 34.2858 -93.6483 248° West 430 495 43,000  Level Fort Center
Mon 11:39:06 AM 34.2483 -93.7881 252° West 435 501 43,000  Level Fort Center
Mon 11:40:06 AM 34.2083 -93.9278 251° West 442 509 43,000  Level Fort Center
Mon 11:41:06 AM 34.1706 -94.0675 252° West 442 509 43,000 -250 Level Fort Center
Mon 11:42:06 AM 34.1303 -94.2069 251° West 448 516 42,500 -1,350 Descending Fort Center
Mon 11:43:06 AM 34.0942 -94.3461 253° West 448 516 40,300 -2,150 Descending Fort Center
Mon 11:44:06 AM 34.0536 -94.4806 250° West 442 509 38,200 -2,100 Descending Fort Center
Mon 11:45:06 AM 34.0108 -94.6222 250° West 442 509 36,100 -2,100 Descending Fort Center
Mon 11:46:06 AM 33.9578 -94.7692 247° West 462 532 34,000 -2,100 Descending Fort Center
Mon 11:47:06 AM 33.8939 -94.9136 242° Southwest 475 547 31,900 -2,100 Descending Fort Center
Mon 11:48:06 AM 33.8281 -95.0631 242° Southwest 498 573 29,800 -2,100 Descending Fort Center
Mon 11:49:06 AM 33.7658 -95.2072 243° Southwest 498 573 27,700 -2,200 Descending Fort Center
Mon 11:50:06 AM 33.7036 -95.3461 242° Southwest 493 567 25,400 -2,500 Descending Fort Center
Mon 11:51:06 AM 33.6450 -95.4797 242° Southwest 471 542 22,700 -2,450 Descending Fort Center
Mon 11:52:06 AM 33.5986 -95.5831 242° Southwest 459 528 20,500 -2,750 Descending Fort Center
Mon 11:53:06 AM 33.5400 -95.7214 243° Southwest 415 478 17,200 -2,700 Descending Fort Center
Mon 11:54:06 AM 33.4894 -95.8344 242° Southwest 390 449 15,100 -2,350 Descending Fort Center
Mon 11:55:06 AM 33.4406 -95.9422 241° Southwest 380 437 12,500 -2,300 Descending Fort Center
Mon 11:56:06 AM 33.3939 -96.0475 242° Southwest 367 422 10,500 -2,050 Descending Fort Center
Mon 11:57:06 AM 33.3528 -96.1328 240° Southwest 317 365 8,400 -1,250 Descending Fort Center
Mon 11:58:06 AM 33.3119 -96.2228 242° Southwest 311 358 8,000 -200 Descending Fort Center
Mon 11:59:06 AM 33.2733 -96.3128 243° Southwest 311 358 8,000 -402 Level Fort Center
Mon 12:00:50 PM 33.2000 -96.4500 237° Southwest 282 325 6,900 -1,055 Descending Dallas TRACON
Mon 12:01:51 PM 33.1667 -96.5333 244° Southwest 277 319 5,100 -1,429 Descending Dallas TRACON
Mon 12:02:56 PM 33.1333 -96.6167 244° Southwest 262 302 3,900 -1,056 Descending Dallas TRACON
Mon 12:03:56 PM 33.1000 -96.7000 244° Southwest 238 274 2,900 -474 Descending Dallas TRACON
Mon 12:04:50 PM 33.0833 -96.7500 248° West 222 255 3,000 -157 Climbing Dallas TRACON
Mon 12:05:51 PM 33.0500 -96.8167 239° Southwest 174 200 2,600 -661 Descending Dallas TRACON
Mon 12:06:57 PM 33.0167 -96.8500 220° Southwest 132 152 1,600 -800 Descending Dallas TRACON
Mon 12:07:51 PM 33.0000 -96.8500 180° South 115 132 1,000 -667 Descending Dallas TRACON

Login

Don't have an account? Register now (free) for customized features, flight alerts, and more!